createdAt,value
2018-07-11T06:32:50.408Z,21.60
2018-07-11T07:07:53.507Z,19.50
2018-07-11T07:10:25.693Z,19.50
2018-07-11T07:15:31.848Z,19.50
2018-07-11T07:20:39.905Z,19.50
2018-07-11T07:23:08.950Z,19.60
2018-07-11T07:25:45.965Z,19.70
2018-07-11T07:29:40.658Z,19.70
2018-07-11T07:32:27.186Z,19.90
2018-07-11T07:34:59.114Z,20.00
2018-07-11T07:41:05.431Z,19.90
2018-07-11T07:43:44.763Z,20.00
2018-07-11T07:46:15.214Z,20.00
2018-07-11T07:48:50.530Z,19.90
2018-07-11T07:51:20.676Z,20.00
2018-07-11T07:53:50.829Z,20.00
2018-07-11T07:58:59.671Z,20.00
2018-07-11T08:01:29.076Z,19.90
2018-07-11T08:03:59.554Z,20.00
2018-07-11T08:06:28.596Z,20.20
2018-07-11T08:08:57.372Z,20.40
2018-07-11T08:11:26.439Z,20.60
2018-07-11T08:13:55.233Z,20.70
2018-07-11T08:16:24.040Z,20.80
2018-07-11T08:18:52.747Z,20.70
2018-07-11T08:21:21.863Z,20.90
2018-07-11T08:24:01.972Z,21.10
2018-07-11T08:26:41.963Z,21.10
2018-07-11T08:31:30.699Z,21.20
2018-07-11T08:39:20.126Z,21.50
2018-07-11T08:42:18.904Z,22.00
2018-07-11T08:45:12.047Z,22.40
2018-07-11T09:09:42.740Z,23.20
2018-07-11T09:14:29.807Z,23.10
2018-07-11T09:17:09.784Z,23.10
2018-07-11T09:19:45.808Z,23.20
2018-07-11T09:22:26.554Z,23.20
2018-07-11T09:24:55.278Z,23.30
2018-07-11T09:27:23.975Z,23.30
2018-07-11T09:29:52.673Z,23.20
2018-07-11T09:32:21.430Z,23.10
2018-07-11T09:34:50.133Z,23.10
2018-07-11T09:37:18.861Z,23.10
2018-07-11T09:39:48.377Z,23.40
2018-07-11T09:42:17.374Z,23.70
2018-07-11T10:55:29.971Z,22.80
2018-07-11T10:57:58.716Z,24.80
2018-07-11T11:00:36.658Z,25.20
2018-07-11T11:02:58.520Z,25.30
2018-07-11T11:05:27.416Z,25.20
2018-07-11T11:07:56.581Z,25.20
2018-07-11T11:10:25.491Z,25.10
2018-07-11T11:12:54.268Z,25.10
2018-07-11T11:15:22.971Z,24.80
2018-07-11T11:17:51.674Z,24.60
2018-07-11T11:20:20.354Z,24.70
2018-07-11T11:22:49.104Z,24.70
2018-07-11T11:25:17.811Z,24.60
2018-07-11T11:27:46.514Z,24.30
2018-07-11T11:30:15.223Z,24.10
2018-07-11T11:32:43.983Z,24.10
2018-07-11T11:35:12.809Z,24.30
2018-07-11T11:37:41.620Z,24.50
2018-07-11T11:40:10.326Z,24.80
2018-07-11T11:42:39.322Z,24.80
2018-07-11T11:45:08.215Z,24.60
2018-07-11T11:47:36.926Z,24.40
2018-07-11T11:50:05.672Z,24.30
2018-07-11T11:52:34.421Z,24.20
2018-07-11T11:55:03.164Z,24.20
2018-07-11T11:57:31.939Z,24.20
2018-07-11T12:00:00.691Z,24.30
2018-07-11T12:02:29.407Z,24.40
2018-07-11T12:04:58.643Z,24.40
2018-07-11T12:07:27.517Z,24.50
2018-07-11T12:09:56.314Z,24.70
2018-07-11T12:12:25.228Z,24.80
2018-07-11T12:14:54.115Z,25.00
2018-07-11T12:17:23.071Z,25.20
2018-07-11T12:19:51.861Z,25.20
2018-07-11T12:22:24.664Z,25.20
2018-07-11T12:24:53.851Z,25.10
2018-07-11T12:27:22.641Z,24.80
2018-07-11T12:29:52.369Z,24.70
2018-07-11T12:32:21.865Z,24.50
2018-07-11T12:34:50.935Z,24.40
2018-07-11T12:37:20.347Z,24.30
2018-07-11T12:39:49.538Z,24.30
2018-07-11T12:42:18.935Z,24.30
2018-07-11T12:44:47.962Z,24.40
2018-07-11T12:47:22.460Z,24.30
2018-07-11T12:49:51.570Z,24.20
2018-07-11T12:52:20.303Z,24.30
2018-07-11T12:54:49.109Z,24.50
2018-07-11T12:57:17.886Z,24.70
2018-07-11T12:59:47.495Z,24.80
2018-07-11T13:02:16.692Z,25.00
2018-07-11T13:04:45.614Z,25.20
2018-07-11T13:07:14.715Z,25.50
2018-07-11T13:09:43.542Z,25.70
2018-07-11T13:12:12.567Z,25.90
2018-07-11T13:14:41.704Z,25.90
2018-07-11T13:17:10.814Z,25.70
2018-07-11T13:19:39.806Z,25.60
2018-07-11T13:22:08.808Z,25.50
2018-07-11T13:24:37.696Z,25.30
2018-07-11T13:27:07.580Z,25.20
2018-07-11T13:29:36.735Z,25.00
2018-07-11T13:32:05.506Z,24.80
2018-07-11T13:34:34.254Z,24.60
2018-07-11T13:37:02.995Z,24.40
2018-07-11T13:39:31.736Z,24.20
2018-07-11T13:42:00.445Z,23.80
2018-07-11T13:44:29.160Z,23.70
2018-07-11T13:46:57.874Z,23.50
2018-07-11T13:49:26.615Z,23.40
2018-07-11T13:51:55.660Z,23.30
2018-07-11T13:54:24.394Z,23.20
2018-07-11T13:56:53.087Z,23.20
2018-07-11T13:59:21.781Z,23.20
2018-07-11T14:01:50.527Z,23.30
2018-07-11T14:04:19.396Z,23.30
2018-07-11T14:06:48.248Z,23.50
2018-07-11T14:09:17.008Z,23.50
2018-07-11T14:11:45.706Z,23.50
2018-07-11T14:14:14.416Z,23.60
2018-07-11T14:16:43.179Z,23.70
2018-07-11T14:19:11.891Z,23.80
2018-07-11T14:21:40.587Z,23.90
2018-07-11T14:24:09.307Z,23.90
2018-07-11T14:26:38.123Z,23.90
2018-07-11T14:29:07.144Z,23.90
2018-07-11T14:31:37.053Z,23.90
2018-07-11T14:34:07.944Z,23.90
2018-07-11T14:36:37.072Z,24.00
2018-07-11T14:39:07.544Z,24.00
2018-07-11T14:41:36.323Z,23.80
2018-07-11T14:46:34.734Z,23.30
2018-07-11T14:49:03.766Z,22.90
2018-07-11T14:51:32.847Z,22.70
2018-07-11T14:54:02.008Z,22.70
2018-07-11T14:56:30.995Z,22.70
2018-07-11T14:58:59.843Z,22.80
2018-07-11T15:01:28.568Z,22.80
2018-07-11T15:03:57.658Z,22.80
2018-07-11T15:06:26.380Z,22.80
2018-07-11T15:08:55.836Z,22.80
2018-07-11T15:11:25.078Z,22.90
2018-07-11T15:13:54.201Z,22.90
2018-07-11T15:16:23.356Z,22.80
2018-07-11T15:18:52.059Z,22.70
2018-07-11T15:21:20.779Z,22.60
2018-07-11T15:23:49.556Z,22.60
2018-07-11T15:26:18.376Z,22.60
2018-07-11T15:28:47.358Z,22.60
2018-07-11T15:31:16.310Z,22.70
2018-07-11T15:33:45.116Z,22.70
2018-07-11T15:36:14.039Z,22.60
2018-07-11T15:38:42.764Z,22.70
2018-07-11T15:41:11.520Z,22.70
2018-07-11T15:43:41.163Z,22.70
2018-07-11T15:46:10.255Z,22.70
2018-07-11T15:48:38.982Z,22.70
2018-07-11T15:51:07.767Z,22.70
2018-07-11T15:53:36.734Z,22.70
2018-07-11T15:56:05.907Z,22.60
2018-07-11T15:58:37.790Z,22.60
2018-07-11T16:01:10.988Z,22.70
2018-07-11T16:03:43.889Z,22.60
2018-07-11T16:06:12.646Z,22.50
2018-07-11T16:08:46.399Z,22.50
2018-07-11T16:11:15.256Z,22.50
2018-07-11T16:13:43.943Z,22.50
2018-07-11T16:16:12.625Z,22.40
2018-07-11T16:18:41.343Z,22.40
2018-07-11T16:21:10.072Z,22.30
2018-07-11T16:23:38.816Z,22.30
2018-07-11T16:26:07.814Z,22.20
2018-07-11T16:28:36.898Z,22.20
2018-07-11T16:31:05.643Z,22.20
2018-07-11T16:33:34.407Z,22.20
2018-07-11T16:36:03.243Z,22.30
2018-07-11T16:38:32.068Z,22.30
2018-07-11T16:41:00.796Z,22.40
2018-07-11T16:43:29.539Z,22.40
2018-07-11T16:45:58.676Z,22.30
2018-07-11T16:48:27.953Z,22.30
2018-07-11T16:50:58.552Z,22.20
2018-07-11T16:53:27.376Z,22.10
2018-07-11T16:55:56.136Z,22.00
2018-07-11T16:58:28.368Z,22.00
2018-07-11T17:00:57.412Z,22.00
2018-07-11T17:03:28.564Z,21.90
2018-07-11T17:06:05.872Z,21.90
2018-07-11T17:08:36.837Z,21.80
2018-07-11T17:11:17.889Z,21.70
2018-07-11T17:13:51.004Z,21.70
2018-07-11T17:16:24.795Z,21.70
2018-07-11T17:19:01.317Z,21.70
2018-07-11T17:21:34.640Z,21.60
2018-07-11T17:24:07.095Z,21.40
2018-07-11T17:26:39.762Z,21.30
2018-07-11T17:29:08.757Z,21.30
2018-07-11T17:31:37.993Z,21.20
2018-07-11T17:34:07.280Z,21.20
2018-07-11T17:36:37.565Z,21.20
2018-07-11T17:39:06.811Z,21.10
2018-07-11T17:41:36.751Z,21.00
2018-07-11T17:44:05.690Z,21.00
2018-07-11T17:46:38.133Z,20.90
2018-07-11T17:49:15.636Z,20.90
2018-07-11T17:52:11.667Z,20.80
2018-07-11T17:55:02.053Z,20.70
2018-07-11T17:57:37.180Z,20.70
2018-07-11T18:00:08.290Z,20.60
2018-07-11T18:05:36.033Z,20.60
2018-07-11T18:08:08.438Z,20.50
2018-07-11T18:10:47.843Z,20.40
2018-07-11T18:13:28.953Z,20.40
2018-07-11T18:16:50.369Z,20.40
2018-07-11T18:19:37.457Z,20.30
2018-07-11T18:22:18.095Z,20.30
2018-07-11T18:25:55.206Z,20.20
2018-07-11T18:29:11.691Z,20.20
2018-07-11T18:31:50.022Z,20.10
2018-07-11T18:35:03.759Z,20.00
2018-07-11T18:37:42.832Z,20.00
2018-07-11T18:40:24.094Z,19.90
2018-07-11T18:43:04.869Z,19.80
2018-07-11T18:45:46.422Z,19.80
2018-07-11T18:48:28.427Z,19.70
2018-07-11T18:51:07.394Z,19.70
2018-07-11T18:54:14.435Z,19.60
2018-07-11T18:56:57.740Z,19.60
2018-07-11T19:03:44.074Z,19.50
2018-07-11T19:06:27.083Z,19.40
2018-07-11T19:09:06.052Z,19.30
2018-07-11T19:11:58.646Z,19.20
2018-07-11T19:14:37.366Z,19.20
2018-07-11T19:44:33.213Z,18.90
2018-07-11T19:48:22.439Z,18.90
2018-07-11T19:50:59.675Z,18.90
2018-07-11T19:54:02.447Z,18.90
2018-07-11T19:56:37.378Z,18.90
2018-07-11T19:59:06.636Z,19.00
2018-07-11T20:01:35.925Z,19.00
2018-07-11T20:04:06.724Z,19.00
2018-07-11T20:06:35.548Z,19.00
2018-07-11T20:09:05.963Z,19.00
2018-07-11T20:11:35.228Z,19.00
2018-07-11T20:14:04.596Z,19.00
